Belding, Michigan
Current Conditions -  °F | °C
As of 7:14 PM on Wednesday 26 Nov 2014 (Local Time) from KY70 Reporting Station
Overcast Overcast  
Wind Chill: 25°   Ceiling: 3300
Heat Index: 30°   Visibility: 10mi
Dew Point: 23°   Wind: 5mph
Humidity: 76%   Direction: 340°NNW
Pressure: 30.1"   Gusts: NA
Location:  43.1°N, 85.23°W
Report Text: KY70 270014Z AUTO 34004KT 10SM OVC033 M01/M05 A3010 RMK AO2 T10131051
Loading
Personal Weather Stations






























Interactive Weather Map New forecast layout! Learn more

10-Day Weather Forecast

Advertisements
Track Severe Weather on mobile